Fougeres (35) - D

Date : 29/10/2012
Distance : 1,600 km

Place Nom Licence Catégorie Club Temps min/km CN à J-60 Points Différence Nouveau CN
1 LUTHRINGER Coline 10091 D16 8809LO 0:20:09 12'35 4381 3916 -465 4310
2 CONIEL Lise 14886 D18 5604BR 0:20:21 12'43 5051 3877 -1174 5019
3 RIVOLLIER Isaline 22451 D16 4201RA 0:20:58 13'06 4296 3763 -533 4202
4 DENAIX Lou 7711 D20 7403RA 0:21:01 13'08 5509 3754 -1755 5527
5 OTSAMO Pihla 25029 D18 5907NO 0:21:13 13'15 5992 3719 -2273 6059
6 CRETE Camille 18828 D18 6008PI 0:21:40 13'32 3728 3641 -87 4100
7 BASSET Fiona 23384 D16 6911RA 0:21:46 13'36 4275 3625 -650 4492
8 LENOBLE Lou 23559 D14 6208NO 0:21:48 13'37 2852 3619 +767 3727
9 DUDOUT Malaurine 24516 D16 2704NM 0:21:50 13'38 2541 3614 +1073 3633
10 ELIAS Pauline 16137 D16 1307PR 0:21:54 13'41 3756 3603 -153 3935
11 BESTEL Sandra 10758 D16 9105IF 0:21:54 13'41 3840 3603 -237 3981
12 GUILMAIN Melanie 20572 D18 6208NO 0:22:26 14'01 4164 3517 -647 4161
13 MORLON Louise 7788 D18 5702LO 0:22:45 14'13 4031 3468 -563 3917
14 DEJARDIN Emilie 10863 D18 1307PR 0:22:51 14'16 4281 3453 -828 4281
15 DUQUENNE Audrey 23885 D16 5907NO 0:23:15 14'31 3734 3393 -341 4021
16 BESSON Manon 20625 D18 4201RA 0:23:29 14'40 3221 3360 +139 3580
17 ALAFORT Lucie 22475 D18 5116CA 0:23:40 14'47 3365 3334 -31 3864
18 FIGUIERE Lucile 10087 D16 7109BO 0:23:44 14'50 2713 3324 +611 3119
19 CHARDOT Julia 19345 D18 7807IF 0:24:06 15'03 4750 3274 -1476 4765
20 DELENNE Joanna 17030 D14 1307PR 0:24:07 15'04 2799 3271 +472 3057
21 CONIEL Laura 14887 D14 5604BR 0:24:20 15'12 3113 3242 +129 3373
22 DE BEAUPUIS Joséphine 25974 D14 6205NO 0:24:31 15'19 1883 3218 +1335 2378
23 ESTIVAL Solene 12561 D14 7709IF 0:24:41 15'25 3478 3196 -282 3875
24 MOUSSU Sarah 22301 D16 3318AQ 0:24:44 15'27 3858 3190 -668 3942
25 KASTENSSON Hedda 20616 D14 0615AZ 0:24:45 15'28 3024 3188 +164 3162
26 SERPE Milena 24816 D14 0207PI 0:24:50 15'31 1545 3177 +1632 2626
27 DIDIER Marion 19566 D14 7305RA 0:24:58 15'36 2660 3160 +500 2901
28 FOL Loreline 16393 D16 3105MP 0:25:01 15'38 4263 3154 -1109 4315
29 FONTAINE Helise 22962 D18 5907NO 0:25:01 15'38 4584 3154 -1430 4536
30 MARTINET JANNIN Léa 26512 D16 2517FC 0:25:08 15'42 3139 3037
31 CRETE Juliette 18829 D16 6008PI 0:25:13 15'45 3141 3129 -12 3703
32 DELENNE Camilla 13800 D16 1307PR 0:25:13 15'45 4132 3129 -1003 4461
33 CHARDOT Marion 22315 D16 7807IF 0:25:20 15'50 4094 3114 -980 4200
34 TRESSOL Marine 20532 D14 4704AQ 0:25:31 15'56 3315 3092 -223 3706
35 KASTENSSON Ellen 20484 D18 0615AZ 0:25:42 16'03 4231 3070 -1161 4203
36 ROUX Angéle 25238 D16 4201RA 0:26:02 16'16 3031 0
37 LEPERQUE Ophelie 20200 D18 6208NO 0:26:06 16'18 4517 3023 -1494 4585
38 PICAZO Marie 16555 D16 8405PR 0:26:11 16'21 4159 3013 -1146 4315
39 DELCUSE Julie 23595 D14 6205NO 0:26:28 16'32 2512 2981 +469 2862
40 VERDIN Alix 15276 D18 7109BO 0:26:29 16'33 3791 2979 -812 3744
41 DODIER Orianne 10485 D18 8405PR 0:26:46 16'43 4275 2948 -1327 4198
42 LOGE Jeanne 12770 D14 5703LO 0:27:16 17'02 2656 2894 +238 2888
43 DUVALLET Marion 26487 D18 2704NM 0:27:16 17'02 0 2894 2778
44 ALLE Capucine 25922 D16 5402LO 0:27:27 17'09 1257 2874 +1617 1691
45 VANOVERBERGHE Camille 21323 D18 6208NO 0:27:28 17'10 4617 2872 -1745 4667
46 LEVESY Salomé 23127 D14 3810RA 0:27:36 17'15 2609 2859 +250 2662
47 BERCHE Léa 24420 D16 5907NO 0:28:01 17'30 3053 2816 -237 2926
48 DASILVA Auriane 12758 D16 7707IF 0:28:08 17'35 2538 2804 +266 2600
49 DUDOUT Loane 25953 D14 2704NM 0:28:11 17'36 1777 2799 +1022 2805
50 OZENNE Camille 26166 D18 1403NM 0:28:22 17'43 2540 2781 +241 2793
51 BELLE Clémence 24444 D14 6205NO 0:28:43 17'56 2469 2747 +278 2920
52 CANCE Julie 25241 D16 1905LI 0:28:44 17'57 1341 2746 +1405 2069
53 LECUYER Manon 22549 D16 5907NO 0:28:58 18'06 2796 2724 -72 3317
54 JACQUET Lise 15633 D14 5703LO 0:28:59 18'06 2609 2722 +113 2734
55 CAZEMAYOR Tess 22291 D16 3318AQ 0:29:36 18'30 2816 2665 -151 3024
56 DELAPORTE Léa 20067 D16 5116CA 0:29:39 18'31 3241 2661 -580 3444
57 BUCAMP Noémie 25200 D16 6008PI 0:29:42 18'33 2055 2656 +601 2689
58 FEUGEAS Clothilde 22198 D16 1905LI 0:29:42 18'33 2309 2656 +347 2545
59 VAN TORHOUDT Adèle 26885 D18 1403NM 0:29:46 18'36 2651 0
60 GONNEAUD Perrine 11385 D18 7109BO 0:29:57 18'43 3312 2634 -678 3384
61 JEANNERET Julie 20160 D16 7109BO 0:29:58 18'43 2196 2633 +437 2617
62 DOUTRELANT Justine 26929 D16 5907NO 0:30:01 18'45 2628 1892
63 DEMESSANCE Annaik 25595 D18 6008PI 0:30:08 18'50 2647 2618 -29 3098
64 SOUAN Cécile 26423 D16 7707IF 0:30:16 18'55 2051 2607 +556 2350
65 FOLTZER Cécile 26907 D16 2517FC 0:30:22 18'58 2598 2339
66 DUVAL Manon 25002 D14 0207PI 0:30:26 19'01 2014 2592 +578 2385
67 COUTANCE Marion 26100 D18 1403NM 0:30:29 19'03 2028 2588 +560 2391
68 GUINOT Marion 15018 D16 2108BO 0:30:30 19'03 3262 2587 -675 3757
69 BASSET Noëllie 24039 D14 6911RA 0:30:36 19'07 2016 2578 +562 1997
70 VOLPATO Suzelle 18968 D14 4709AQ 0:30:42 19'11 2709 2570 -139 2726
71 NICOLLE Léonie 25722 D14 1403NM 0:31:07 19'26 1943 2536 +593 2475
72 CHABANCE Lucile 23077 D14 4201RA 0:31:56 19'57 2471 0
73 GRESSIER Léa 24242 D14 6208NO 0:32:09 20'05 1307 2454 +1147 1644
74 GREBEL Louise 12587 D14 7305RA 0:32:10 20'06 2350 2453 +103 2376
75 BULLIER Alisson 23427 D16 0207PI 0:32:15 20'09 2567 2446 -121 2920
76 GRENEY Diane 25277 D14 6804AL 0:32:18 20'11 2127 2443 +316 2450
77 FLORENT Roxane 26927 D18 5907NO 0:32:27 20'16 2431 2208
78 DANIEL Zoe 24364 D14 8104MP 0:33:08 20'42 1388 2381 +993 2127
79 HAU Pauline 24804 D16 6208NO 0:33:31 20'56 2354 0
80 DUFOUR Marie 26623 D16 7407RA 0:34:18 21'26 2300 1789
81 DELVA Lou 26620 D16 7407RA 0:35:08 21'57 2246 1926
82 VERBEKE romane 26906 D16 6208NO 0:35:17 22'03 2236 0
83 OUDIN Emma 15488 D14 6804AL 0:35:44 22'20 2160 2208 +48 2557
84 VANOVERBERGHE Mathilde 22238 D14 6208NO 0:36:19 22'41 2179 2172 -7 2394
85 REYDANT Juliette 19882 D16 2704NM 0:36:58 23'06 2134 1976
86 PERREARD-GARIN Soraya 25343 D14 7407RA 0:37:46 23'36 1894 2089 +195 2073
87 DUPONT Capucine 26535 D14 0207PI 0:38:08 23'50 2069 1617
88 GUENIN Justine 16949 D14 5116CA 0:38:10 23'51 2414 2067 -347 2487
89 AUBERT Sophie 23116 D14 1705PC 0:38:27 24'01 2052 1803
90 DESCOURVIERES Perrine 25550 D16 7407RA 0:42:12 26'22 1928 1870 -58 1949
91 FIGARD Cécile 26475 D16 7707IF 0:46:19 28'56 0 1703 1635
92 MORIN Laura 23391 D18 2208BR 0:47:54 29'56 2266 1647 -619 2266
93 HUMMEL-AZAIS Margaux 18432 D18 7403RA 0:52:14 32'38 5955 1510 -4445 5909
94 LABROCHE Claire 26570 D14 0207PI 0:56:37 35'23 1394 1385
95 GUILLOT Clémence 24955 D14 1705PC 1:03:33 39'43 1912 1242 -670 1995
96 RAMBAUD Maelyne 26696 D14 2610RA 1:09:23 43'21 1137 1114
PINZELLI Tamara 23551 D16 1905LI pm None 3227 0 3436
VERBEKE Marie-Léa 24805 D16 6208NO pm None 0 0
GLAUDIN Clémentine 25899 D18 1403NM pm None 2290 0 2290
VASILYEVA Véronika 25923 D16 5402LO pm None 2762 0 3190
PIGEON Clémence 21260 D16 1403NM pm None 1373 0 1946
DASSE-VINAY Clemence 19954 D14 5302PL pm None 744 0 759
LAURENT Manon 25577 D16 5907NO pm None 2472 0 2535
MORIN Lucie 23393 D16 2208BR pm None 1549 0 1549